Time;durP1;ratioP1;P1;durP2;ratioP2;P2;SDS_P1;SDS_P2;PMS_P1;PMS_P2;Temp;Humidity;BMP_temperature;BMP_pressure;BME280_temperature;BME280_humidity;BME280_pressure;Samples;Min_cycle;Max_cycle;Signal;HPM_P1;HPM_P2
2021/07/07 00:00:58;;;;;;;4.47;1.77;;;;;;;22.18;48.55;101103.94;5015650;28;20398;-88
2021/07/07 00:03:24;;;;;;;4.03;1.55;;;;;;;22.16;48.42;101111.81;5033484;28;20029;-88
2021/07/07 00:05:49;;;;;;;2.97;1.50;;;;;;;22.16;48.64;101111.81;5033394;28;20152;-89
2021/07/07 00:08:14;;;;;;;3.25;1.60;;;;;;;22.21;48.87;101122.22;4983137;28;20033;-88
2021/07/07 00:10:40;;;;;;;3.78;1.58;;;;;;;22.23;48.85;101115.19;4983543;28;20124;-89
2021/07/07 00:13:05;;;;;;;4.93;1.55;;;;;;;22.21;48.54;101111.75;4999020;28;20061;-87
2021/07/07 00:15:32;;;;;;;4.78;1.60;;;;;;;22.21;48.80;101111.75;4999284;28;20462;-88
2021/07/07 00:18:03;;;;;;;5.90;1.50;;;;;;;22.21;48.47;101106.50;4999386;28;20029;-88
2021/07/07 00:20:36;;;;;;;5.10;1.60;;;;;;;22.22;48.23;101113.47;5015572;28;20113;-88
2021/07/07 00:23:02;;;;;;;3.92;1.55;;;;;;;22.21;48.83;101113.47;5016512;28;20483;-88
2021/07/07 00:25:28;;;;;;;5.25;1.83;;;;;;;22.19;48.43;101111.78;5015624;28;20037;-88
2021/07/07 00:27:53;;;;;;;4.05;1.70;;;;;;;22.18;48.64;101110.03;4999541;28;20033;-88
2021/07/07 00:30:19;;;;;;;3.55;1.40;;;;;;;22.19;48.55;101110.91;5015504;28;20087;-88
2021/07/07 00:32:45;;;;;;;5.45;1.60;;;;;;;22.20;48.62;101112.63;5015579;28;20443;-87
2021/07/07 00:35:11;;;;;;;3.70;1.50;;;;;;;22.17;48.41;101116.19;5015856;28;20091;-88
2021/07/07 00:37:36;;;;;;;4.35;1.42;;;;;;;22.18;48.47;101110.03;5015720;28;20041;-88
2021/07/07 00:40:04;;;;;;;4.60;1.52;;;;;;;22.12;48.59;101117.19;4999126;28;20033;-88
2021/07/07 00:42:29;;;;;;;4.35;1.48;;;;;;;22.12;48.99;101119.81;5015339;28;20108;-88
2021/07/07 00:44:55;;;;;;;4.00;1.38;;;;;;;22.14;48.40;101118.00;5015320;28;20107;-88
2021/07/07 00:47:20;;;;;;;4.07;1.40;;;;;;;22.14;48.42;101118.88;4998988;28;20092;-88
2021/07/07 00:49:46;;;;;;;3.75;1.67;;;;;;;22.16;48.83;101118.84;4999052;28;20111;-85
2021/07/07 00:52:11;;;;;;;6.15;1.55;;;;;;;22.17;48.79;101118.81;4998996;28;20068;-86
2021/07/07 00:54:38;;;;;;;4.38;1.40;;;;;;;22.18;48.53;101117.03;5015714;28;20049;-86
2021/07/07 00:57:03;;;;;;;5.85;1.60;;;;;;;22.17;48.85;101116.19;5032995;28;20368;-87
2021/07/07 00:59:29;;;;;;;5.00;1.80;;;;;;;22.17;48.90;101115.34;4982843;28;20148;-87
2021/07/07 01:01:56;;;;;;;3.30;1.38;;;;;;;22.15;49.14;101114.50;5015289;28;20106;-85
2021/07/07 01:04:21;;;;;;;3.30;1.58;;;;;;;22.15;48.87;101117.97;5015396;28;20061;-85
2021/07/07 01:06:47;;;;;;;2.92;1.45;;;;;;;22.17;48.69;101123.19;5001888;28;20487;-85
2021/07/07 01:09:12;;;;;;;4.00;1.40;;;;;;;22.17;48.72;101123.19;5018955;28;20483;-85
2021/07/07 01:11:38;;;;;;;2.67;1.20;;;;;;;22.15;48.75;101119.75;5002509;28;20042;-85
2021/07/07 01:14:04;;;;;;;3.13;1.30;;;;;;;22.14;48.67;101118.88;5023179;28;20033;-85
2021/07/07 01:16:30;;;;;;;3.30;1.30;;;;;;;22.12;48.86;101117.19;5019774;28;20117;-85
2021/07/07 01:18:56;;;;;;;3.55;1.25;;;;;;;22.12;48.94;101118.06;5003915;28;20029;-84
2021/07/07 01:21:22;;;;;;;5.28;1.60;;;;;;;22.13;49.01;101117.16;5007691;28;20029;-85
2021/07/07 01:23:49;;;;;;;2.83;1.30;;;;;;;22.12;48.60;101117.19;5033332;28;20040;-85
2021/07/07 01:26:15;;;;;;;4.43;1.25;;;;;;;22.13;48.81;101118.94;5050516;28;20025;-85
2021/07/07 01:28:40;;;;;;;4.88;1.58;;;;;;;22.12;48.82;101117.19;4990318;28;20494;-85
2021/07/07 01:31:06;;;;;;;3.85;1.40;;;;;;;22.11;49.13;101116.34;5020680;28;20108;-85
2021/07/07 01:33:32;;;;;;;4.30;1.30;;;;;;;22.13;48.83;101124.16;5003304;28;20045;-87
2021/07/07 01:35:58;;;;;;;2.80;1.20;;;;;;;22.11;48.96;101118.94;5019174;28;20025;-88
2021/07/07 01:38:23;;;;;;;2.72;1.27;;;;;;;22.09;48.76;101122.50;5018401;28;20034;-88
2021/07/07 01:40:49;;;;;;;3.75;1.48;;;;;;;22.11;48.72;101120.72;5002402;28;20388;-87
2021/07/07 01:43:14;;;;;;;3.17;1.30;;;;;;;22.10;49.05;101119.88;5001788;28;20124;-79
2021/07/07 01:45:40;;;;;;;2.55;1.10;;;;;;;22.11;48.72;101118.09;5018094;28;20428;-78
2021/07/07 01:48:05;;;;;;;3.72;1.40;;;;;;;22.13;49.08;101114.53;5017833;28;20099;-79
2021/07/07 01:50:31;;;;;;;3.50;1.40;;;;;;;22.13;49.08;101108.44;5035658;28;20061;-86
2021/07/07 01:52:56;;;;;;;4.07;1.40;;;;;;;22.12;48.78;101112.84;5035860;28;20097;-85
2021/07/07 01:55:25;;;;;;;3.88;1.55;;;;;;;22.07;49.07;101119.91;5001902;28;20040;-85
2021/07/07 01:57:50;;;;;;;2.70;1.10;;;;;;;22.10;49.01;101118.97;5001905;28;20541;-86
2021/07/07 02:00:28;;;;;;;4.00;1.40;;;;;;;22.11;49.03;101121.56;5001352;28;20026;-86
2021/07/07 02:02:55;;;;;;;4.50;1.30;;;;;;;22.10;48.88;101119.88;5017702;28;20045;-86
2021/07/07 02:05:39;;;;;;;3.30;1.15;;;;;;;22.10;49.04;101113.75;5001780;28;20040;-85
2021/07/07 02:08:07;;;;;;;3.92;1.38;;;;;;;22.10;49.08;101118.97;5018063;28;20025;-86
2021/07/07 02:10:33;;;;;;;3.13;1.05;;;;;;;22.12;49.08;101114.56;5001337;28;20084;-86
2021/07/07 02:12:59;;;;;;;2.67;1.10;;;;;;;22.10;48.89;101116.34;5001156;28;20137;-86
2021/07/07 02:15:30;;;;;;;3.95;1.40;;;;;;;22.09;49.09;101117.28;5017721;28;20124;-87
2021/07/07 02:17:58;;;;;;;3.85;1.42;;;;;;;22.10;48.88;101118.97;5017588;28;20026;-86
2021/07/07 02:20:26;;;;;;;3.67;1.30;;;;;;;22.10;49.11;101121.59;5017372;28;20074;-87
2021/07/07 02:22:51;;;;;;;1.95;1.25;;;;;;;22.08;49.14;101126.91;5017583;28;20026;-86
2021/07/07 02:25:29;;;;;;;3.42;1.20;;;;;;;22.08;49.20;101115.53;5001025;28;20035;-87
2021/07/07 02:27:57;;;;;;;3.17;1.05;;;;;;;22.07;49.15;101119.91;5017444;28;20404;-87
2021/07/07 02:30:25;;;;;;;3.80;1.40;;;;;;;22.05;48.93;101115.63;5033820;28;20072;-87
2021/07/07 02:32:51;;;;;;;4.63;1.50;;;;;;;22.05;49.24;101129.56;5017256;28;20116;-86
2021/07/07 02:35:21;;;;;;;4.10;1.38;;;;;;;22.07;49.14;101129.56;5001205;28;20029;-87
2021/07/07 02:37:53;;;;;;;4.00;1.20;;;;;;;22.06;49.27;101127.81;5017104;28;20033;-86
2021/07/07 02:40:19;;;;;;;3.35;1.02;;;;;;;22.06;49.30;101136.56;5001658;28;20061;-86
2021/07/07 02:42:45;;;;;;;4.35;1.50;;;;;;;22.06;48.98;101140.91;5017198;28;20068;-86
2021/07/07 02:45:12;;;;;;;3.45;1.40;;;;;;;22.05;49.09;101131.34;5034930;28;20030;-86
2021/07/07 02:47:39;;;;;;;5.38;1.40;;;;;;;22.04;49.00;101135.72;5034690;28;20029;-86
2021/07/07 02:50:06;;;;;;;3.25;1.17;;;;;;;22.03;49.16;101125.28;5016973;28;20388;-85
2021/07/07 02:52:31;;;;;;;2.72;1.33;;;;;;;22.03;49.11;101134.00;5017337;28;20041;-86
2021/07/07 02:54:57;;;;;;;3.70;1.20;;;;;;;22.01;49.00;101133.16;5016926;28;20101;-86
2021/07/07 02:57:22;;;;;;;3.53;1.30;;;;;;;22.02;49.31;101132.28;5017111;28;20036;-86
2021/07/07 02:59:47;;;;;;;4.60;1.30;;;;;;;22.04;49.06;101130.50;4984134;28;20057;-86
2021/07/07 03:02:13;;;;;;;2.80;1.40;;;;;;;22.02;49.14;101128.81;5000197;28;20029;-86
2021/07/07 03:04:38;;;;;;;3.97;1.52;;;;;;;22.01;49.17;101127.06;4984030;28;20037;-86
2021/07/07 03:07:04;;;;;;;5.30;1.30;;;;;;;22.04;48.99;101137.50;4984125;28;20036;-86
2021/07/07 03:09:30;;;;;;;3.95;1.23;;;;;;;22.01;48.75;101137.56;5000279;28;20029;-86
2021/07/07 03:11:56;;;;;;;3.47;1.30;;;;;;;21.98;49.08;101143.72;5016385;28;20052;-86
2021/07/07 03:14:21;;;;;;;2.97;1.25;;;;;;;21.97;49.15;101134.13;5016798;28;20033;-86
2021/07/07 03:16:46;;;;;;;2.55;1.20;;;;;;;21.99;48.84;101134.97;5000055;28;20030;-87
2021/07/07 03:19:12;;;;;;;2.22;1.20;;;;;;;22.02;49.01;101137.53;4999967;28;20065;-87
2021/07/07 03:21:37;;;;;;;4.05;1.20;;;;;;;22.00;48.96;101138.47;4983754;28;20030;-87
2021/07/07 03:24:03;;;;;;;3.28;1.17;;;;;;;22.00;49.22;101141.09;5000475;28;20502;-86
2021/07/07 03:26:28;;;;;;;2.95;1.30;;;;;;;22.04;49.12;101142.75;5016431;28;20030;-86
2021/07/07 03:28:53;;;;;;;3.17;1.30;;;;;;;22.02;48.95;101137.53;4983071;28;20052;-86
2021/07/07 03:31:19;;;;;;;2.72;1.10;;;;;;;22.05;48.93;101149.69;5016207;28;20037;-87
2021/07/07 03:33:44;;;;;;;4.82;1.40;;;;;;;22.02;48.97;101152.41;4983572;28;20037;-87
2021/07/07 03:36:10;;;;;;;4.70;1.30;;;;;;;22.02;48.90;101142.75;5016222;28;20057;-86
2021/07/07 03:38:35;;;;;;;3.58;1.30;;;;;;;21.99;48.87;101145.44;5016378;28;20079;-87
2021/07/07 03:41:01;;;;;;;5.57;1.25;;;;;;;21.99;49.18;101150.69;4999772;28;20075;-87
2021/07/07 03:43:26;;;;;;;2.80;1.23;;;;;;;21.98;48.92;101149.81;5015800;28;20021;-86
2021/07/07 03:45:52;;;;;;;3.35;1.17;;;;;;;21.98;48.99;101148.97;4999594;28;20029;-85
2021/07/07 03:48:17;;;;;;;3.97;1.33;;;;;;;21.97;48.97;101155.09;4983984;28;20498;-86
2021/07/07 03:50:43;;;;;;;2.63;1.27;;;;;;;21.97;49.10;101158.59;4999417;28;20030;-87
2021/07/07 03:53:09;;;;;;;2.15;1.30;;;;;;;22.01;49.20;101161.13;4999604;28;20034;-87
2021/07/07 03:55:35;;;;;;;3.55;1.30;;;;;;;22.02;49.14;101162.88;4999735;28;20025;-87
2021/07/07 03:58:01;;;;;;;2.47;1.30;;;;;;;22.04;48.93;101155.84;5015729;28;20054;-86
2021/07/07 04:00:29;;;;;;;3.95;1.35;;;;;;;22.07;48.78;101158.38;4999696;28;20107;-87
2021/07/07 04:02:56;;;;;;;2.67;1.23;;;;;;;22.01;48.96;101151.50;5016046;28;20036;-88
2021/07/07 04:05:22;;;;;;;4.15;1.10;;;;;;;22.05;49.16;101157.56;5015753;28;20029;-87
2021/07/07 04:07:48;;;;;;;2.88;1.25;;;;;;;22.08;49.11;101163.59;5015647;28;20430;-87
2021/07/07 04:10:14;;;;;;;2.88;1.30;;;;;;;22.10;48.87;101160.91;4999491;28;20079;-86
2021/07/07 04:12:42;;;;;;;3.33;1.20;;;;;;;22.11;49.07;101165.28;5015454;28;20058;-87
2021/07/07 04:15:10;;;;;;;4.00;1.10;;;;;;;22.13;48.87;101159.09;4999454;28;20472;-85
2021/07/07 04:17:36;;;;;;;3.45;1.33;;;;;;;22.16;48.87;101164.25;5015600;28;20048;-87
2021/07/07 04:20:05;;;;;;;2.30;1.27;;;;;;;22.18;48.97;101166.84;5015488;28;20371;-87
2021/07/07 04:22:31;;;;;;;3.03;1.15;;;;;;;22.16;48.77;101163.41;4999651;28;20035;-86
2021/07/07 04:24:57;;;;;;;3.60;1.38;;;;;;;22.18;48.72;101164.22;5015700;28;20120;-88
2021/07/07 04:27:22;;;;;;;2.65;1.30;;;;;;;22.19;48.54;101161.56;4999147;28;20037;-86
2021/07/07 04:29:47;;;;;;;3.10;1.10;;;;;;;22.24;48.91;101160.66;4999239;28;20037;-89
2021/07/07 04:32:16;;;;;;;2.00;0.93;;;;;;;22.26;48.70;101162.31;4982891;28;20372;-87
2021/07/07 04:34:41;;;;;;;4.50;1.40;;;;;;;22.24;48.88;101166.75;4999644;28;20476;-88
2021/07/07 04:37:07;;;;;;;2.63;1.20;;;;;;;22.24;48.67;101165.88;5031904;28;20120;-88
2021/07/07 04:39:32;;;;;;;4.55;1.20;;;;;;;22.26;48.75;101171.97;5000632;28;20117;-87
2021/07/07 04:41:57;;;;;;;3.20;1.23;;;;;;;22.27;48.89;101176.28;4986566;28;20404;-86
2021/07/07 04:44:23;;;;;;;3.42;1.05;;;;;;;22.30;48.62;101174.47;5019340;28;20029;-87
2021/07/07 04:46:48;;;;;;;2.53;1.10;;;;;;;22.37;48.55;101173.41;5003036;28;20029;-87
2021/07/07 04:49:14;;;;;;;2.40;1.10;;;;;;;22.52;48.52;101174.78;5002734;28;20103;-88
2021/07/07 04:51:39;;;;;;;2.63;1.10;;;;;;;22.59;47.96;101181.59;5002778;28;20025;-88
2021/07/07 04:54:04;;;;;;;2.20;1.10;;;;;;;22.61;48.05;101171.09;5002680;28;20029;-87
2021/07/07 04:56:30;;;;;;;2.30;1.00;;;;;;;22.82;47.62;101176.66;4986562;28;20052;-86
2021/07/07 04:58:55;;;;;;;2.20;0.85;;;;;;;23.02;47.19;101178.78;5003219;28;20032;-85
2021/07/07 05:01:20;;;;;;;3.17;1.17;;;;;;;23.12;46.97;101175.03;5019193;28;20032;-90
2021/07/07 05:03:46;;;;;;;5.75;1.38;;;;;;;22.99;47.25;101182.31;5002647;28;20056;-89
2021/07/07 05:06:11;;;;;;;3.50;1.40;;;;;;;22.85;47.09;101184.47;5019145;28;20073;-88
2021/07/07 05:08:37;;;;;;;6.35;1.50;;;;;;;22.61;47.95;101180.72;5036552;28;20502;-89
2021/07/07 05:11:02;;;;;;;2.90;1.20;;;;;;;22.74;47.46;101187.38;4987883;28;20091;-89
2021/07/07 05:13:28;;;;;;;9.60;1.67;;;;;;;22.96;47.20;101185.03;5017020;28;20056;-88
2021/07/07 05:15:54;;;;;;;13.07;2.67;;;;;;;22.89;47.65;101189.59;5010127;28;20045;-91
2021/07/07 05:18:20;;;;;;;9.18;1.67;;;;;;;22.79;47.75;101190.72;5022042;28;20084;-91
2021/07/07 05:20:46;;;;;;;5.65;1.60;;;;;;;22.77;48.02;101188.13;4984129;28;20031;-92
2021/07/07 05:23:12;;;;;;;5.68;1.45;;;;;;;22.70;47.54;101183.97;5016454;28;20029;-91
2021/07/07 05:25:39;;;;;;;6.03;1.60;;;;;;;22.65;47.23;101190.25;4999820;28;20469;-94
2021/07/07 05:28:05;;;;;;;8.98;1.90;;;;;;;22.63;46.96;101190.28;5001057;28;20120;-88
2021/07/07 05:30:31;;;;;;;5.43;1.70;;;;;;;22.61;46.75;101191.22;5000383;28;20100;-93
2021/07/07 05:32:59;;;;;;;7.82;1.83;;;;;;;22.61;46.38;101191.22;5015761;28;20033;-89
2021/07/07 05:35:25;;;;;;;4.82;1.80;;;;;;;22.56;46.60;101191.34;5016044;28;20018;-92
2021/07/07 05:37:51;;;;;;;7.78;1.50;;;;;;;22.58;46.61;101203.50;5016083;28;20033;-92
2021/07/07 05:40:17;;;;;;;5.32;1.90;;;;;;;23.80;43.87;101194.97;5015837;28;20117;-91
2021/07/07 05:42:51;;;;;;;11.40;1.63;;;;;;;25.16;40.30;101192.31;5015726;28;20030;-93
2021/07/07 05:45:17;;;;;;;5.35;1.67;;;;;;;25.93;38.58;101191.28;5016069;28;20028;-93
2021/07/07 05:47:43;;;;;;;5.05;1.60;;;;;;;26.10;38.13;101191.47;4999942;28;20049;-89
2021/07/07 05:50:08;;;;;;;7.85;1.80;;;;;;;26.55;37.04;101187.88;4999538;28;20480;-89
2021/07/07 05:52:34;;;;;;;4.95;1.90;;;;;;;26.78;36.52;101194.00;5014839;28;20472;-88
2021/07/07 05:54:59;;;;;;;5.68;1.65;;;;;;;26.61;36.86;101197.34;4983058;28;20036;-88
2021/07/07 05:57:36;;;;;;;4.88;1.67;;;;;;;26.36;37.44;101195.69;5000007;28;20068;-89
2021/07/07 06:00:06;;;;;;;4.72;1.80;;;;;;;26.45;37.22;101197.09;5001644;28;20103;-88
2021/07/07 06:02:31;;;;;;;5.22;1.70;;;;;;;26.59;36.92;101201.84;5017000;28;20396;-88
2021/07/07 06:04:57;;;;;;;5.03;1.80;;;;;;;26.80;36.24;101208.84;5002945;28;20026;-87
2021/07/07 06:07:22;;;;;;;4.80;1.70;;;;;;;27.44;34.84;101209.63;5017259;28;20033;-85
2021/07/07 06:09:48;;;;;;;7.40;2.20;;;;;;;27.47;35.02;101205.03;4999985;28;20042;-87
2021/07/07 06:12:13;;;;;;;3.85;1.58;;;;;;;27.65;34.90;101205.97;5003410;28;20087;-91
2021/07/07 06:14:38;;;;;;;4.45;1.85;;;;;;;27.78;34.35;101208.06;4999446;28;20087;-89
2021/07/07 06:17:04;;;;;;;4.50;1.90;;;;;;;27.66;34.41;101206.84;5011169;28;20491;-88
2021/07/07 06:19:29;;;;;;;5.20;1.65;;;;;;;26.64;36.50;101213.91;5002239;28;20035;-89
2021/07/07 06:21:57;;;;;;;3.10;1.50;;;;;;;26.07;37.70;101215.34;5001718;28;20068;-86
2021/07/07 06:24:25;;;;;;;5.53;1.65;;;;;;;26.44;37.76;101219.13;4985943;28;20057;-89
2021/07/07 06:26:50;;;;;;;6.45;1.90;;;;;;;26.39;37.44;101224.59;4986527;28;20040;-89
2021/07/07 06:29:17;;;;;;;4.70;2.17;;;;;;;25.69;39.00;101229.94;5001353;28;20124;-86
2021/07/07 06:31:43;;;;;;;4.05;1.60;;;;;;;25.75;38.93;101227.94;4985495;28;20436;-86
2021/07/07 06:34:09;;;;;;;4.35;1.75;;;;;;;25.45;39.80;101238.69;5001131;28;20387;-86
2021/07/07 06:36:34;;;;;;;7.25;1.80;;;;;;;25.68;38.98;101242.28;5001677;28;20030;-87
2021/07/07 06:38:59;;;;;;;4.57;1.90;;;;;;;25.37;39.75;101239.88;5001297;28;20072;-85
2021/07/07 06:41:25;;;;;;;7.40;1.83;;;;;;;25.53;39.78;101235.78;4984746;28;20467;-87
2021/07/07 06:43:50;;;;;;;5.32;1.73;;;;;;;25.37;39.87;101240.78;5000715;28;20029;-86
2021/07/07 06:46:15;;;;;;;4.22;1.60;;;;;;;25.36;39.65;101240.81;5017009;28;20133;-86
2021/07/07 06:48:41;;;;;;;5.85;2.00;;;;;;;25.07;40.56;101233.91;5000772;28;20033;-86
2021/07/07 06:51:07;;;;;;;4.25;1.85;;;;;;;24.67;41.11;101238.75;5001145;28;20053;-85
2021/07/07 06:53:32;;;;;;;6.97;1.67;;;;;;;24.99;40.07;101237.66;4984636;28;20025;-86
2021/07/07 06:55:58;;;;;;;4.25;1.58;;;;;;;24.20;41.80;101255.09;4984633;28;20048;-86
2021/07/07 06:58:23;;;;;;;4.88;1.83;;;;;;;24.72;40.41;101254.41;5000666;28;20112;-86
2021/07/07 07:00:48;;;;;;;8.10;2.08;;;;;;;23.51;42.94;101254.47;4984090;28;20112;-86
2021/07/07 07:03:14;;;;;;;5.63;1.70;;;;;;;23.40;43.36;101259.16;4999737;28;20033;-86
2021/07/07 07:05:39;;;;;;;7.07;1.63;;;;;;;23.41;42.65;101259.13;5000504;28;20033;-87
2021/07/07 07:08:05;;;;;;;6.68;1.60;;;;;;;23.03;44.06;101262.75;5017630;28;20044;-87
2021/07/07 07:10:31;;;;;;;6.88;1.73;;;;;;;23.06;44.43;101267.06;5000385;28;20021;-88
2021/07/07 07:12:56;;;;;;;5.70;1.73;;;;;;;22.53;45.13;101268.31;5016556;28;20111;-88
2021/07/07 07:15:21;;;;;;;6.88;1.50;;;;;;;22.30;45.68;101276.72;5016721;28;20386;-87
2021/07/07 07:17:47;;;;;;;3.63;1.42;;;;;;;22.38;45.36;101280.03;5034850;28;20026;-88
2021/07/07 07:20:17;;;;;;;13.95;1.95;;;;;;;23.40;43.26;101288.91;5000160;28;20502;-88
2021/07/07 07:22:44;;;;;;;3.38;1.25;;;;;;;23.73;42.23;101280.13;5000213;28;20352;-88
2021/07/07 07:25:11;;;;;;;5.78;1.52;;;;;;;23.10;44.28;101293.19;5016594;28;20097;-88
2021/07/07 07:27:37;;;;;;;5.10;1.58;;;;;;;23.12;43.73;101283.50;5000181;28;20033;-89
2021/07/07 07:30:05;;;;;;;5.72;1.60;;;;;;;22.56;45.24;101291.84;5016502;28;20030;-89
2021/07/07 07:32:31;;;;;;;4.47;1.40;;;;;;;22.31;46.26;101296.78;5000183;28;20071;-89
2021/07/07 07:34:56;;;;;;;5.45;1.70;;;;;;;22.19;46.34;101295.25;5000163;28;20025;-89
2021/07/07 07:37:25;;;;;;;5.57;1.77;;;;;;;22.07;46.27;101306.00;4986094;28;20120;-86
2021/07/07 07:39:53;;;;;;;3.72;1.52;;;;;;;22.07;46.48;101307.78;4984573;28;20056;-86
2021/07/07 07:42:19;;;;;;;4.22;1.73;;;;;;;22.21;46.42;101304.84;5016154;28;20021;-86
2021/07/07 07:44:46;;;;;;;6.30;1.60;;;;;;;22.16;47.09;101312.81;4999926;28;20029;-85
2021/07/07 07:47:11;;;;;;;7.43;1.88;;;;;;;22.13;46.68;101313.75;4999954;28;20029;-87
2021/07/07 07:49:37;;;;;;;4.28;1.52;;;;;;;22.07;47.32;101319.09;4999979;28;20048;-87
2021/07/07 07:52:04;;;;;;;5.60;1.88;;;;;;;22.12;47.26;101319.00;5033963;28;20156;-86
2021/07/07 07:54:30;;;;;;;6.10;1.90;;;;;;;22.03;47.72;101319.22;4983710;28;20029;-87
2021/07/07 07:56:55;;;;;;;3.88;1.70;;;;;;;22.17;47.34;101325.03;4983999;28;20032;-86
2021/07/07 07:59:21;;;;;;;6.88;1.80;;;;;;;22.17;47.40;101325.03;4999765;28;20537;-87
2021/07/07 08:01:46;;;;;;;6.72;1.75;;;;;;;22.09;47.49;101327.81;4999367;28;20443;-87
2021/07/07 08:04:12;;;;;;;4.82;1.77;;;;;;;22.03;47.50;101330.53;4999820;28;20116;-87
2021/07/07 08:06:38;;;;;;;4.13;1.52;;;;;;;22.03;47.86;101342.78;5016047;28;20036;-86
2021/07/07 08:09:04;;;;;;;4.68;1.50;;;;;;;21.93;47.74;101335.13;4999718;28;20033;-87
2021/07/07 08:11:30;;;;;;;5.50;1.63;;;;;;;22.03;47.44;101345.41;5015796;28;20022;-87
2021/07/07 08:13:55;;;;;;;6.38;1.83;;;;;;;21.84;47.44;101345.78;5015178;28;20041;-87
2021/07/07 08:16:22;;;;;;;8.32;1.77;;;;;;;21.69;47.88;101351.31;4999446;28;20030;-88
2021/07/07 08:18:48;;;;;;;7.43;1.85;;;;;;;21.87;47.60;101361.44;5015801;28;20514;-87
2021/07/07 08:21:13;;;;;;;7.07;1.70;;;;;;;22.03;47.21;101359.38;4999343;28;20026;-87
2021/07/07 08:23:39;;;;;;;5.70;1.73;;;;;;;22.14;46.97;101360.00;5015690;28;20033;-87
2021/07/07 08:26:05;;;;;;;3.60;1.45;;;;;;;22.22;47.17;101367.78;4983306;28;20102;-86
2021/07/07 08:28:30;;;;;;;6.95;1.77;;;;;;;22.26;47.34;101364.19;5015468;28;20383;-87
2021/07/07 08:30:56;;;;;;;4.68;1.42;;;;;;;22.34;47.01;101362.28;5033332;28;20018;-87
2021/07/07 08:33:21;;;;;;;4.75;1.65;;;;;;;22.41;46.78;101362.13;4999295;28;20036;-87
2021/07/07 08:35:47;;;;;;;5.28;1.70;;;;;;;22.39;47.31;101365.66;4983247;28;20025;-87
2021/07/07 08:38:13;;;;;;;5.60;1.48;;;;;;;22.41;47.23;101360.38;4999590;28;20467;-86
2021/07/07 08:40:38;;;;;;;5.55;1.60;;;;;;;22.55;46.79;101362.69;4999109;28;20463;-86
2021/07/07 08:43:04;;;;;;;4.13;1.50;;;;;;;22.69;46.52;101363.25;4999294;28;20033;-86
2021/07/07 08:45:30;;;;;;;7.70;1.70;;;;;;;22.70;46.62;101367.59;4999515;28;20025;-86
2021/07/07 08:47:55;;;;;;;3.95;1.50;;;;;;;22.65;46.95;101366.84;4999727;28;20128;-86
2021/07/07 08:50:24;;;;;;;4.25;1.58;;;;;;;22.63;46.92;101368.66;4999453;28;20120;-87
2021/07/07 08:52:51;;;;;;;2.33;1.30;;;;;;;22.63;47.21;101365.16;5015532;28;20029;-86
2021/07/07 08:55:17;;;;;;;5.32;1.65;;;;;;;22.61;46.92;101373.06;5015786;28;20030;-87
2021/07/07 08:57:43;;;;;;;4.63;1.60;;;;;;;22.57;47.27;101384.50;5000279;28;20120;-87
2021/07/07 09:00:15;;;;;;;3.03;1.48;;;;;;;22.54;47.28;101388.06;4999615;28;20083;-87
2021/07/07 09:02:56;;;;;;;3.25;1.33;;;;;;;22.58;47.27;101386.22;5016037;28;20025;-87
2021/07/07 09:05:24;;;;;;;3.72;1.50;;;;;;;22.63;47.06;101387.00;5016715;28;20026;-87
2021/07/07 09:07:50;;;;;;;3.83;1.40;;;;;;;22.62;47.07;101387.88;5017747;28;20029;-86
2021/07/07 09:10:36;;;;;;;3.88;1.58;;;;;;;22.57;47.27;101397.63;5017809;28;20068;-87
2021/07/07 09:13:17;;;;;;;3.78;1.42;;;;;;;22.52;47.66;101394.25;5035860;28;20072;-87
2021/07/07 09:15:44;;;;;;;3.80;1.55;;;;;;;22.52;47.76;101400.34;5018432;28;20064;-87
2021/07/07 09:18:19;;;;;;;4.47;1.55;;;;;;;22.51;47.73;101406.47;5037855;28;20021;-89
2021/07/07 09:20:44;;;;;;;4.57;1.60;;;;;;;22.52;47.73;101404.75;5037767;28;20026;-89
2021/07/07 09:23:18;;;;;;;5.18;1.48;;;;;;;22.55;47.52;101415.16;5004882;28;20147;-89
2021/07/07 09:26:00;;;;;;;;;;;;;;;22.56;47.70;101412.50;5020590;28;20030;-90
2021/07/07 09:28:37;;;;;;;2.95;1.35;;;;;;;22.55;47.72;101418.63;5021700;28;19916;-87
2021/07/07 09:31:07;;;;;;;3.88;1.40;;;;;;;22.54;47.63;101421.31;5019255;28;20109;-86
2021/07/07 09:33:42;;;;;;;3.38;1.58;;;;;;;22.52;47.63;101430.97;5019635;28;20053;-87
2021/07/07 09:36:22;;;;;;;4.30;1.48;;;;;;;22.54;47.78;101435.28;5019686;28;20032;-87
2021/07/07 09:38:50;;;;;;;3.15;1.35;;;;;;;22.61;47.79;101435.16;5006454;28;20034;-87
2021/07/07 09:41:16;;;;;;;3.13;1.40;;;;;;;22.62;47.59;101429.84;5004242;28;20026;-91
2021/07/07 09:43:54;;;;;;;3.72;1.50;;;;;;;22.63;47.30;101434.22;5022573;28;20071;-92
2021/07/07 09:46:21;;;;;;;3.70;1.48;;;;;;;22.65;47.41;101442.94;5021750;28;20024;-90
2021/07/07 09:48:52;;;;;;;3.25;1.40;;;;;;;22.65;47.51;101447.31;5020129;28;20065;-93
2021/07/07 09:51:18;;;;;;;3.65;1.63;;;;;;;22.66;47.83;101443.78;5019283;28;20014;-91
2021/07/07 09:53:44;;;;;;;4.95;1.40;;;;;;;22.65;47.81;101448.19;5018761;28;20021;-92
2021/07/07 09:56:10;;;;;;;4.10;1.67;;;;;;;22.62;47.76;101453.47;5018752;28;20030;-90
2021/07/07 09:58:35;;;;;;;2.55;1.30;;;;;;;22.62;47.83;101456.09;5019120;28;20483;-91
2021/07/07 10:01:01;;;;;;;4.38;1.48;;;;;;;22.67;47.78;101456.88;4985935;28;20056;-94
2021/07/07 10:03:26;;;;;;;2.78;1.30;;;;;;;22.73;47.80;101455.88;5018413;28;20087;-90
2021/07/07 10:05:52;;;;;;;4.10;1.50;;;;;;;22.78;47.84;101464.53;5018453;28;20471;-90
2021/07/07 10:08:21;;;;;;;4.80;1.60;;;;;;;22.77;47.55;101473.28;5001790;28;20025;-91
2021/07/07 10:10:47;;;;;;;5.25;1.77;;;;;;;22.74;47.61;101463.72;5001763;28;20026;-90
2021/07/07 10:13:14;;;;;;;4.07;1.40;;;;;;;22.69;47.52;101469.94;5017810;28;20076;-90
2021/07/07 10:15:40;;;;;;;4.47;1.50;;;;;;;22.70;47.48;101469.91;5035739;28;20486;-90
2021/07/07 10:18:07;;;;;;;4.47;1.67;;;;;;;22.75;47.44;101477.69;5017602;28;20037;-91
2021/07/07 10:20:34;;;;;;;8.30;1.90;;;;;;;22.79;46.97;101479.34;5001388;28;20032;-91
2021/07/07 10:23:02;;;;;;;4.93;1.85;;;;;;;22.80;47.10;101473.22;5017832;28;20025;-90
2021/07/07 10:25:30;;;;;;;4.15;1.65;;;;;;;22.83;47.30;101467.03;5035506;28;20464;-90
2021/07/07 10:28:03;;;;;;;5.30;1.85;;;;;;;22.86;47.05;101480.94;5017664;28;20029;-90
2021/07/07 10:31:08;;;;;;;3.85;1.65;;;;;;;22.77;46.98;101482.00;5017487;28;20422;-90
2021/07/07 10:33:36;;;;;;;7.38;1.48;;;;;;;22.69;47.12;101486.56;5034910;28;20511;-90
2021/07/07 10:36:21;;;;;;;4.30;1.77;;;;;;;22.65;47.48;101489.28;5017535;28;20025;-90
2021/07/07 10:39:07;;;;;;;4.82;1.90;;;;;;;22.62;47.59;101498.06;5017340;28;20044;-90
2021/07/07 10:41:42;;;;;;;4.90;1.80;;;;;;;22.63;47.54;101498.94;5017504;28;20037;-90
2021/07/07 10:44:29;;;;;;;3.70;1.58;;;;;;;22.65;47.31;101507.66;5017460;28;20044;-91
2021/07/07 10:47:02;;;;;;;3.63;1.40;;;;;;;22.65;47.00;101503.28;5016617;28;20029;-90
2021/07/07 10:49:54;;;;;;;5.07;1.77;;;;;;;22.69;47.16;101523.31;5017288;28;20036;-90
2021/07/07 10:52:33;;;;;;;2.83;1.48;;;;;;;22.72;46.97;101504.84;5017209;28;20044;-89
2021/07/07 10:55:01;;;;;;;5.28;2.03;;;;;;;22.74;46.80;101510.09;5017110;28;20067;-90
2021/07/07 10:57:35;;;;;;;4.50;1.85;;;;;;;22.82;46.96;101512.53;5017165;28;20032;-90
2021/07/07 11:00:08;;;;;;;4.93;1.95;;;;;;;22.85;46.62;101507.25;5016931;28;20025;-90
2021/07/07 11:02:34;;;;;;;4.50;1.75;;;;;;;22.90;46.83;101510.63;5001671;28;20030;-89
2021/07/07 11:05:04;;;;;;;3.35;1.70;;;;;;;22.92;46.42;101508.84;5000591;28;20030;-89
2021/07/07 11:07:35;;;;;;;4.10;1.83;;;;;;;22.95;46.54;101519.25;5001455;28;20172;-90
2021/07/07 11:10:15;;;;;;;4.93;1.77;;;;;;;22.92;46.15;101521.94;5016952;28;20021;-90
2021/07/07 11:12:41;;;;;;;5.97;2.08;;;;;;;22.93;46.74;101526.28;5016660;28;20137;-90
2021/07/07 11:15:18;;;;;;;4.75;1.92;;;;;;;22.98;46.29;101525.31;5016741;28;20072;-91
2021/07/07 11:17:55;;;;;;;4.95;1.70;;;;;;;22.97;46.13;101551.59;5034503;28;20041;-90
2021/07/07 11:20:31;;;;;;;4.85;1.45;;;;;;;22.99;45.96;101552.41;5001128;28;20552;-89
2021/07/07 11:23:05;;;;;;;6.35;1.95;;;;;;;22.96;46.31;101540.22;5016565;28;20037;-90
2021/07/07 11:25:32;;;;;;;3.35;1.65;;;;;;;22.94;46.19;101551.66;5016680;28;20029;-88